AirNav   Pilot Hours Calculator
 
 314 users online  

7MI1 Mc Phail Heliport
Orchard Lake, Michigan, USA

GOING TO ORCHARD LAKE?


FAA INFORMATION EFFECTIVE 05 DECEMBER 2019

Location

FAA Identifier: 7MI1
Lat/Long: 42-34-20.1180N 083-23-39.7690W
42-34.335300N 083-23.662817W
42.5722550,-83.3943803
(estimated)
Elevation: 970 ft. / 296 m (estimated)
Variation: 06W (1985)
Time zone: UTC -5 (UTC -4 during Daylight Saving Time)
Zip code: 48324

Heliport Operations

Heliport use: Private use, PERSONAL USE.
Activation date: 02/1982
Control tower: no
ARTCC: CLEVELAND CENTER
FSS: LANSING FLIGHT SERVICE STATION
Attendance: IREG
Wind indicator: yes
Segmented circle: no
Lights: FOR PERI LGTS CALL 561-310-5494.

Heliport Communications

WX ASOS at PTK (6 nm N): 125.025 (248-886-8551)
WX AWOS-3 at VLL (10 nm E): 119.475 (248-288-4649)
WX ASOS at DET (20 nm SE): PHONE 313-371-9696

Nearby radio navigation aids

VOR radial/distance  VOR name  Freq  Var
SVMr045/13.2SALEM VORTAC114.3003W
DXOr003/21.6DETROIT VOR/DME113.4006W
FNTr153/28.3FLINT VORTAC116.9006W
CRLr008/31.6CARLETON VOR/DME115.7003W
YQGr314/31.7WINDSOR VOR/DME113.8006W

 
NDB name  Hdg/Dist  Freq  Var  ID
GROSSE ILE346/30.241907WRYS .-. -.-- ...
TECUMSEH040/39.023906WTCU - -.-. ..-

Heliport Services

Runway Information

Helipad H1

Dimensions: 350 x 250 ft. / 107 x 76 m
Surface: turf
Latitude: 42-34.335300N
Longitude: 083-23.662817W
Elevation: 970.0 ft.
Traffic pattern: leftleft

Heliport Ownership and Management from official FAA records

Ownership: Privately-owned
Owner: WALTER S. MC PHAIL
5600 PONTIAC TRAIL
ORCHARD LAKE, MI 48033
Phone 561-310-5494
Manager: WALTER S. MC PHAIL
5600 PONTIAC TRAIL
ORCHARD LAKE, MI 48033
Phone 561-310-5494

Heliport Operational Statistics

Aircraft based on the field: 1
Helicopters: 1
    

Additional Remarks

A40 PERIMETER LGTS.
FOR CD CTC DETROIT APCH AT 800-499-8181.

Instrument Procedures

There are no published instrument procedures at 7MI1.

Some nearby airports with instrument procedures:

KPTK - Oakland County International Airport (6 nm N)
KVLL - Oakland/Troy Airport (10 nm E)
Y47 - Oakland Southwest Airport (11 nm W)
1D2 - Canton-Plymouth-Mettetal Airport (14 nm S)
KDET - Coleman A Young Municipal Airport (20 nm SE)
 
Loc | Ops | Rwys | IFR | FBO | Links
Com | Nav | Svcs | Stats | Notes
Area around 7MI1 (Mc Phail Heliport)
 
Road maps at: MapQuest Bing Google
 
Aerial photo
No photo
 
Sectional chart

 
Airport distance calculator
Flying to Mc Phail Heliport? Find the distance to fly.

From to 7MI1

Sunrise and sunset
Times for 12-Dec-2019
 Local
(UTC-5)
 Zulu
(UTC)
Morning civil twilight07:2312:23
Sunrise07:5512:55
Sunset16:5921:59
Evening civil twilight17:3122:31

Current date and time
Zulu (UTC)  12-Dec-2019 11:19:00
Local (UTC-5)  12-Dec-2019 06:19:00
 
METAR
KPTK 
6nm N 
121053Z 17006KT 10SM FEW120 M08/M13 A3052 RMK AO2 SLP354 T10831128
KVLL 
10nm E 
121056Z AUTO 00000KT 10SM CLR M08/M11 A3058 RMK AO2 T10811111
KDET 
20nm SE 
121053Z 16003KT 10SM CLR M08/M11 A3058 RMK AO2 SLP631 T10781111
TAF
KPTK 
6nm N 
120523Z 1206/1306 23005KT P6SM SKC FM120900 17005KT P6SM OVC100 FM121500 16011KT P6SM SCT035 BKN100 OVC250 FM121900 17014KT P6SM BKN250 FM130000 19013KT P6SM SCT250
KDET 
20nm SE 
120523Z 1206/1306 23005KT P6SM SKC FM120900 16004KT P6SM BKN100 OVC250 FM121500 16011KT P6SM SCT035 BKN250 FM121800 17014KT P6SM BKN250 FM130000 18011KT P6SM SCT250
NOTAMs
Click for the latest NOTAMs
NOTAMs are issued by the DoD/FAA and will open in a separate window not controlled by AirNav.

 

 
 

Would you like to see your business listed on this page?

 If your business provides an interesting product or service to pilots, flight crews, aircraft, or users of the Mc Phail Heliport, you should consider listing it here.  To start the listing process, click on the button below
 
Add a business
 

Other Pages about Mc Phail Heliport

Update a link
 
Copyright © AirNav, LLC. All rights reserved. Privacy Policy  Contact